Time;durP1;ratioP1;P1;durP2;ratioP2;P2;SDS_P1;SDS_P2;PMS_P1;PMS_P2;Temp;Humidity;BMP_temperature;BMP_pressure;BME280_temperature;BME280_humidity;BME280_pressure;Samples;Min_cycle;Max_cycle;Signal;HPM_P1;HPM_P2
2022/01/27 00:00:01;;;;;;;40.10;16.40;;;-0.10;99.90;;;;;;4950005;29;20466;-76
2022/01/27 00:05:07;;;;;;;39.43;17.37;;;-0.10;99.90;;;;;;4952121;28;20440;-73
2022/01/27 00:07:33;;;;;;;53.50;18.87;;;-0.10;99.90;;;;;;4955695;28;20387;-73
2022/01/27 00:13:00;;;;;;;48.27;17.33;;;-0.10;99.90;;;;;;4913187;29;20416;-76
2022/01/27 00:15:31;;;;;;;48.13;18.50;;;0.00;99.90;;;;;;4945146;28;21072;-75
2022/01/27 00:18:01;;;;;;;42.10;18.00;;;-0.10;99.90;;;;;;4955413;28;20394;-76
2022/01/27 00:20:27;;;;;;;48.80;18.53;;;-0.10;99.90;;;;;;4954262;28;20853;-76
2022/01/27 00:22:53;;;;;;;46.37;17.27;;;0.00;99.90;;;;;;4953948;28;20554;-76
2022/01/27 00:25:18;;;;;;;40.87;16.50;;;0.00;99.90;;;;;;4954943;28;20519;-75
2022/01/27 00:27:44;;;;;;;52.20;19.50;;;0.00;99.90;;;;;;4945634;28;20263;-76
2022/01/27 00:30:11;;;;;;;36.87;17.70;;;0.00;99.90;;;;;;4955120;28;20180;-76
2022/01/27 00:32:36;;;;;;;44.93;18.53;;;0.00;99.90;;;;;;4953995;28;20221;-75
2022/01/27 00:35:04;;;;;;;37.23;18.13;;;0.00;99.90;;;;;;4953436;29;20434;-76
2022/01/27 00:37:29;;;;;;;37.83;16.07;;;0.00;99.90;;;;;;4952705;28;20264;-76
2022/01/27 00:39:55;;;;;;;34.00;16.83;;;0.00;99.90;;;;;;4954695;28;20474;-74
2022/01/27 00:42:21;;;;;;;41.97;16.93;;;0.00;99.90;;;;;;4948529;28;20218;-76
2022/01/27 00:44:46;;;;;;;45.50;19.00;;;0.00;99.90;;;;;;4937554;28;20655;-76
2022/01/27 00:47:12;;;;;;;38.30;16.47;;;0.00;99.90;;;;;;4954006;29;20325;-76
2022/01/27 00:49:38;;;;;;;44.77;18.33;;;0.00;99.90;;;;;;4953344;28;20193;-76
2022/01/27 00:52:07;;;;;;;46.87;18.47;;;0.10;99.90;;;;;;4954718;28;20239;-76
2022/01/27 00:54:33;;;;;;;38.43;16.27;;;0.10;99.90;;;;;;4953595;28;20452;-76
2022/01/27 00:57:08;;;;;;;37.03;15.47;;;0.20;99.90;;;;;;4948468;28;20590;-77
2022/01/27 05:32:04;;;;;;;28.27;14.27;;;0.00;99.90;;;;;;5335101;23;20502;-74
2022/01/27 05:34:29;;;;;;;28.07;14.50;;;0.00;99.90;;;;;;4974354;28;20506;-77
2022/01/27 05:36:55;;;;;;;35.30;15.83;;;0.00;99.90;;;;;;4978012;28;20600;-77
2022/01/27 05:39:20;;;;;;;28.50;14.17;;;0.00;99.90;;;;;;4973202;28;20186;-76
2022/01/27 05:41:46;;;;;;;34.87;16.10;;;0.00;99.90;;;;;;4969751;28;20250;-76
2022/01/27 05:44:11;;;;;;;30.30;15.30;;;0.00;99.90;;;;;;4967310;28;20190;-77
2022/01/27 05:46:37;;;;;;;34.07;16.03;;;0.00;99.90;;;;;;4971095;28;20190;-76
2022/01/27 05:49:03;;;;;;;29.40;13.83;;;0.00;99.90;;;;;;4969828;28;20187;-76
2022/01/27 05:51:29;;;;;;;33.30;15.63;;;-0.10;99.90;;;;;;4973179;28;20206;-77
2022/01/27 05:53:54;;;;;;;41.37;14.70;;;0.00;99.90;;;;;;4968232;28;20992;-77
2022/01/27 05:56:20;;;;;;;32.37;14.87;;;0.00;99.90;;;;;;4972930;28;20228;-77
2022/01/27 05:58:46;;;;;;;34.53;16.33;;;-0.10;99.90;;;;;;4963959;28;20180;-76
2022/01/27 06:01:12;;;;;;;39.97;18.20;;;0.00;99.90;;;;;;4972510;28;20680;-76
2022/01/27 06:03:38;;;;;;;38.27;17.07;;;0.00;99.90;;;;;;4971739;28;20372;-77
2022/01/27 06:06:03;;;;;;;38.60;18.20;;;-0.10;99.90;;;;;;4973428;28;21049;-77
2022/01/27 06:08:30;;;;;;;34.60;17.40;;;0.00;99.90;;;;;;4972219;28;20179;-77
2022/01/27 06:10:56;;;;;;;36.00;17.60;;;0.00;99.90;;;;;;4969769;28;20237;-77
2022/01/27 06:13:22;;;;;;;38.97;17.70;;;0.00;99.90;;;;;;4969810;28;20436;-77
2022/01/27 06:15:47;;;;;;;33.73;16.07;;;0.00;99.90;;;;;;4970777;28;20468;-76
2022/01/27 06:18:13;;;;;;;34.80;15.73;;;0.10;99.90;;;;;;4972708;28;20254;-76
2022/01/27 06:20:40;;;;;;;36.73;15.43;;;0.10;99.90;;;;;;4970701;28;20184;-77
2022/01/27 06:23:05;;;;;;;29.43;14.77;;;0.10;99.90;;;;;;4969235;28;20549;-76
2022/01/27 06:25:31;;;;;;;29.80;15.10;;;0.00;99.90;;;;;;4970535;28;20415;-77
2022/01/27 06:27:57;;;;;;;26.80;14.20;;;0.00;99.90;;;;;;4968553;28;20180;-75
2022/01/27 06:30:23;;;;;;;29.20;15.20;;;0.00;99.90;;;;;;4971532;28;20180;-77
2022/01/27 06:32:49;;;;;;;32.07;15.20;;;0.00;99.90;;;;;;4966395;28;20479;-76
2022/01/27 06:35:14;;;;;;;28.83;14.43;;;0.00;99.90;;;;;;4965639;28;20188;-77
2022/01/27 06:37:42;;;;;;;33.70;13.90;;;-0.10;99.90;;;;;;4971739;28;20606;-76
2022/01/27 06:40:10;;;;;;;29.10;15.57;;;-0.10;99.90;;;;;;4975318;28;20168;-77
2022/01/27 06:42:36;;;;;;;30.07;16.07;;;-0.10;99.90;;;;;;4974241;28;20522;-76
2022/01/27 06:45:03;;;;;;;30.10;13.33;;;0.00;99.90;;;;;;4972110;28;20787;-77
2022/01/27 06:47:28;;;;;;;29.13;14.37;;;-0.10;99.90;;;;;;4976019;28;20438;-76
2022/01/27 06:49:54;;;;;;;33.20;16.70;;;0.00;99.90;;;;;;4973216;28;21038;-75
2022/01/27 06:52:21;;;;;;;40.27;15.00;;;-0.10;99.90;;;;;;4976303;28;20229;-76
2022/01/27 06:54:49;;;;;;;32.90;15.77;;;-0.10;99.90;;;;;;4973654;28;20188;-75
2022/01/27 06:57:15;;;;;;;34.73;16.80;;;-0.20;99.90;;;;;;4967187;28;20453;-76
2022/01/27 06:59:41;;;;;;;35.33;17.57;;;-0.20;99.90;;;;;;4964400;28;20403;-77
2022/01/27 07:02:07;;;;;;;36.83;16.07;;;-0.10;99.90;;;;;;4976004;28;20791;-78
2022/01/27 07:04:32;;;;;;;33.57;16.87;;;-0.10;99.90;;;;;;4975549;28;20547;-75
2022/01/27 07:06:58;;;;;;;31.33;15.43;;;0.00;99.90;;;;;;4973447;28;20180;-76
2022/01/27 07:09:23;;;;;;;30.47;15.00;;;0.10;99.90;;;;;;4975781;28;20190;-75
2022/01/27 07:11:49;;;;;;;38.27;17.57;;;0.10;99.90;;;;;;4972424;28;20224;-75
2022/01/27 07:14:14;;;;;;;43.67;18.60;;;0.10;99.90;;;;;;4972942;28;20668;-75
2022/01/27 07:16:42;;;;;;;44.07;18.57;;;0.10;99.90;;;;;;4974749;28;20598;-75
2022/01/27 07:19:07;;;;;;;43.60;19.60;;;0.10;99.90;;;;;;4972083;28;20195;-72
2022/01/27 07:21:33;;;;;;;43.93;18.70;;;0.10;99.90;;;;;;4975184;28;20477;-75
2022/01/27 07:23:58;;;;;;;55.50;20.77;;;0.10;99.90;;;;;;4970264;28;20659;-73
2022/01/27 07:26:27;;;;;;;46.53;19.87;;;0.20;99.90;;;;;;4975693;28;20183;-75
2022/01/27 07:28:56;;;;;;;43.60;19.90;;;0.20;99.90;;;;;;4968962;28;20184;-75
2022/01/27 07:31:22;;;;;;;48.03;19.50;;;0.20;99.90;;;;;;4974468;28;20956;-72
2022/01/27 07:33:49;;;;;;;51.37;21.80;;;0.20;99.90;;;;;;4974067;28;20831;-73
2022/01/27 07:36:15;;;;;;;41.13;17.60;;;0.20;99.90;;;;;;4975440;28;20446;-74
2022/01/27 07:38:42;;;;;;;43.47;19.13;;;0.10;99.90;;;;;;4973135;28;20602;-73
2022/01/27 07:41:07;;;;;;;42.03;18.60;;;0.10;99.90;;;;;;4972305;28;20470;-75
2022/01/27 07:43:33;;;;;;;43.50;17.33;;;0.00;99.90;;;;;;4972745;28;20966;-75
2022/01/27 07:45:59;;;;;;;49.63;19.77;;;0.00;99.90;;;;;;4971661;28;20203;-75
2022/01/27 07:48:26;;;;;;;43.77;18.77;;;0.00;99.90;;;;;;4974850;28;20168;-75
2022/01/27 07:50:51;;;;;;;44.13;18.63;;;-0.10;99.90;;;;;;4972528;28;20441;-75
2022/01/27 07:53:17;;;;;;;33.77;15.90;;;-0.10;99.90;;;;;;4972062;28;20446;-71
2022/01/27 07:55:42;;;;;;;37.50;17.80;;;-0.10;99.90;;;;;;4972466;28;20258;-75
2022/01/27 07:58:08;;;;;;;39.33;18.27;;;-0.20;99.90;;;;;;4972223;28;20197;-75
2022/01/27 08:00:34;;;;;;;35.87;15.87;;;-0.20;99.90;;;;;;4975005;28;20816;-75
2022/01/27 08:02:59;;;;;;;41.00;17.23;;;-0.20;99.90;;;;;;4970214;28;20184;-75
2022/01/27 08:05:25;;;;;;;41.20;17.40;;;-0.20;99.90;;;;;;4974782;28;20199;-75
2022/01/27 08:07:50;;;;;;;39.50;16.20;;;-0.30;99.90;;;;;;4972011;28;20724;-74
2022/01/27 08:10:16;;;;;;;41.60;15.40;;;-0.30;99.90;;;;;;4974674;28;20641;-75
2022/01/27 08:12:42;;;;;;;50.43;17.93;;;-0.30;99.90;;;;;;4971050;28;20207;-75
2022/01/27 08:15:09;;;;;;;36.67;16.87;;;-0.30;99.90;;;;;;4969520;28;20196;-75
2022/01/27 08:17:34;;;;;;;49.03;15.87;;;-0.40;99.90;;;;;;4974566;28;20521;-74
2022/01/27 08:20:00;;;;;;;42.60;17.53;;;-0.50;99.90;;;;;;4972396;28;20433;-75
2022/01/27 08:22:25;;;;;;;33.67;16.50;;;-0.40;99.90;;;;;;4971510;28;20711;-75
2022/01/27 08:24:51;;;;;;;43.73;16.10;;;-0.40;99.90;;;;;;4969659;28;20183;-76
2022/01/27 08:27:19;;;;;;;44.13;17.37;;;-0.40;99.90;;;;;;4973972;28;20602;-74
2022/01/27 08:29:51;;;;;;;43.23;16.60;;;-0.40;99.90;;;;;;4970012;28;20183;-75
2022/01/27 08:32:27;;;;;;;43.57;16.67;;;-0.40;99.90;;;;;;4974012;28;20879;-75
2022/01/27 08:34:52;;;;;;;49.97;18.60;;;-0.30;99.90;;;;;;4971189;28;20518;-75
2022/01/27 08:37:18;;;;;;;36.60;16.07;;;-0.40;99.90;;;;;;4972646;28;20565;-76
2022/01/27 08:39:48;;;;;;;38.73;15.47;;;-0.40;99.90;;;;;;4969340;28;20212;-72
2022/01/27 08:42:14;;;;;;;41.00;16.40;;;-0.30;99.90;;;;;;4971148;28;20793;-75
2022/01/27 08:44:41;;;;;;;39.33;16.57;;;-0.40;99.90;;;;;;4971829;28;20525;-74
2022/01/27 08:47:07;;;;;;;34.83;15.10;;;-0.30;99.90;;;;;;4969187;28;20479;-75
2022/01/27 08:49:33;;;;;;;51.20;17.53;;;-0.30;99.90;;;;;;4973382;28;20503;-75
2022/01/27 08:51:59;;;;;;;42.83;17.03;;;-0.20;99.90;;;;;;4969907;28;20482;-74
2022/01/27 08:54:25;;;;;;;36.93;14.53;;;0.00;99.90;;;;;;4973188;28;20887;-74
2022/01/27 08:56:51;;;;;;;39.70;15.30;;;0.20;99.90;;;;;;4971883;28;20293;-75
2022/01/27 08:59:17;;;;;;;31.63;15.00;;;0.20;99.90;;;;;;4968014;28;20429;-74
2022/01/27 09:01:43;;;;;;;43.60;16.43;;;0.30;99.90;;;;;;4973212;28;20459;-74
2022/01/27 09:04:09;;;;;;;35.50;13.13;;;0.20;99.90;;;;;;4970521;28;20217;-74
2022/01/27 09:06:36;;;;;;;48.00;15.00;;;0.30;99.90;;;;;;4973082;28;20860;-74
2022/01/27 09:09:02;;;;;;;29.40;12.40;;;0.30;99.90;;;;;;4970874;28;20572;-74
2022/01/27 09:11:30;;;;;;;32.73;12.50;;;0.50;99.90;;;;;;4972384;28;20612;-74
2022/01/27 09:13:59;;;;;;;22.20;10.57;;;0.50;99.90;;;;;;4968252;28;20796;-74
2022/01/27 09:16:27;;;;;;;25.93;10.90;;;0.50;99.90;;;;;;4953976;28;20489;-75
2022/01/27 09:18:57;;;;;;;18.53;10.17;;;0.60;99.90;;;;;;4952473;29;20448;-74
2022/01/27 09:21:27;;;;;;;22.93;9.47;;;0.50;99.90;;;;;;4966790;28;20452;-73
2022/01/27 09:23:54;;;;;;;20.77;10.63;;;0.60;99.90;;;;;;4967119;28;20467;-75
2022/01/27 09:26:43;;;;;;;22.97;9.37;;;0.60;99.90;;;;;;4969738;28;20469;-74
2022/01/27 09:29:09;;;;;;;24.17;10.60;;;0.70;99.90;;;;;;4970386;28;20446;-74
2022/01/27 09:31:36;;;;;;;30.57;10.47;;;0.80;99.90;;;;;;4969484;28;20862;-75
2022/01/27 09:34:02;;;;;;;19.03;9.90;;;0.80;99.90;;;;;;4971800;28;20785;-75
2022/01/27 09:36:27;;;;;;;26.57;9.80;;;0.90;99.90;;;;;;4969667;28;20901;-75
2022/01/27 09:38:53;;;;;;;25.67;9.10;;;1.00;99.90;;;;;;4972559;28;20464;-74
2022/01/27 09:41:20;;;;;;;20.50;9.20;;;1.00;99.90;;;;;;4971265;28;20208;-75
2022/01/27 09:43:48;;;;;;;17.60;8.77;;;1.10;99.90;;;;;;4965192;28;20287;-74
2022/01/27 09:46:17;;;;;;;22.80;8.73;;;1.20;99.90;;;;;;4972644;28;20986;-74
2022/01/27 09:48:47;;;;;;;16.40;8.33;;;1.30;99.90;;;;;;4969560;28;20429;-75
2022/01/27 09:51:38;;;;;;;17.07;8.20;;;1.30;99.90;;;;;;4972326;28;20434;-74
2022/01/27 09:54:04;;;;;;;21.50;9.43;;;1.40;99.90;;;;;;4967795;28;20466;-75
2022/01/27 09:56:30;;;;;;;15.67;7.10;;;1.40;99.90;;;;;;4972595;28;20472;-74
2022/01/27 09:58:56;;;;;;;19.00;7.40;;;1.40;99.90;;;;;;4969911;28;20462;-76
2022/01/27 10:01:21;;;;;;;14.03;6.57;;;1.50;99.90;;;;;;4972259;28;20254;-76
2022/01/27 10:04:06;;;;;;;16.60;8.07;;;1.60;99.90;;;;;;4971063;28;20711;-76
2022/01/27 10:06:33;;;;;;;20.83;9.10;;;1.60;99.90;;;;;;4969405;28;20231;-75
2022/01/27 10:09:29;;;;;;;14.93;8.30;;;1.60;99.90;;;;;;4953639;28;20536;-75
2022/01/27 10:11:55;;;;;;;21.40;8.90;;;1.70;99.90;;;;;;4952799;28;20465;-75
2022/01/27 10:14:20;;;;;;;13.20;7.83;;;1.70;99.90;;;;;;4960486;28;20464;-72
2022/01/27 10:16:46;;;;;;;17.80;8.30;;;1.70;99.90;;;;;;4972576;28;20289;-76
2022/01/27 10:19:13;;;;;;;23.20;10.53;;;1.70;99.90;;;;;;4972327;28;20200;-75
2022/01/27 10:21:39;;;;;;;16.97;9.23;;;1.70;99.90;;;;;;4967767;28;20521;-75
2022/01/27 10:24:23;;;;;;;15.70;7.83;;;1.60;99.90;;;;;;4967093;28;20795;-75
2022/01/27 10:27:15;;;;;;;16.13;8.00;;;1.70;99.90;;;;;;4967725;28;20482;-75
2022/01/27 10:30:00;;;;;;;18.87;8.97;;;1.70;99.90;;;;;;4969903;28;20571;-76
2022/01/27 10:32:47;;;;;;;20.30;9.17;;;1.90;99.90;;;;;;4968949;28;20495;-73
2022/01/27 10:35:15;;;;;;;15.60;8.67;;;1.90;99.90;;;;;;4971039;28;20465;-71
2022/01/27 10:38:01;;;;;;;23.63;9.23;;;1.90;99.90;;;;;;4965622;28;20956;-75
2022/01/27 10:40:42;;;;;;;12.03;8.20;;;1.90;99.90;;;;;;4972069;28;20445;-71
2022/01/27 10:43:21;;;;;;;19.03;7.60;;;2.00;99.90;;;;;;4966660;28;20438;-74
2022/01/27 10:48:47;;;;;;;17.83;8.50;;;2.00;99.90;;;;;;4967286;28;20473;-74
2022/01/27 10:51:20;;;;;;;14.27;7.33;;;2.00;99.90;;;;;;4952562;28;20533;-73
2022/01/27 10:53:56;;;;;;;12.80;7.77;;;2.10;99.90;;;;;;4961333;28;20489;-74
2022/01/27 10:56:25;;;;;;;18.73;8.10;;;2.20;99.90;;;;;;4972056;28;20485;-75
2022/01/27 10:58:51;;;;;;;18.67;8.30;;;2.30;99.90;;;;;;4968485;28;20542;-74
2022/01/27 11:01:25;;;;;;;18.20;6.93;;;2.40;99.90;;;;;;4969417;28;20464;-75
2022/01/27 11:03:52;;;;;;;14.63;7.90;;;2.50;99.90;;;;;;4968794;28;20996;-74
2022/01/27 11:06:24;;;;;;;11.23;6.23;;;2.60;99.90;;;;;;4972095;28;20551;-75
2022/01/27 11:08:53;;;;;;;13.40;8.00;;;2.70;99.90;;;;;;4970977;28;20504;-74
2022/01/27 11:11:23;;;;;;;12.07;6.50;;;2.80;99.90;;;;;;4961723;28;20482;-74
2022/01/27 11:13:50;;;;;;;11.20;6.77;;;2.80;99.90;;;;;;4969067;28;20608;-75
2022/01/27 11:16:20;;;;;;;12.97;6.80;;;2.90;99.90;;;;;;4968602;28;20463;-75
2022/01/27 11:18:46;;;;;;;15.80;7.83;;;2.90;99.90;;;;;;4972044;28;20449;-74
2022/01/27 11:21:28;;;;;;;12.90;7.30;;;2.90;99.90;;;;;;4967520;28;20544;-74
2022/01/27 11:24:07;;;;;;;15.03;7.07;;;2.80;99.90;;;;;;4968835;28;20465;-71
2022/01/27 11:26:37;;;;;;;21.80;9.80;;;2.80;99.90;;;;;;4972171;28;20553;-74
2022/01/27 11:29:04;;;;;;;17.43;7.60;;;2.90;99.90;;;;;;4972403;28;20428;-74
2022/01/27 11:31:52;;;;;;;18.47;9.50;;;2.90;99.90;;;;;;4973880;28;20515;-75
2022/01/27 11:34:17;;;;;;;15.00;8.90;;;2.90;99.90;;;;;;4974746;28;20799;-72
2022/01/27 11:37:04;;;;;;;19.60;7.87;;;2.90;99.90;;;;;;4972122;28;20487;-75
2022/01/27 11:39:53;;;;;;;19.23;8.67;;;2.90;99.90;;;;;;4975249;28;20204;-75
2022/01/27 11:42:42;;;;;;;17.07;8.40;;;2.80;99.90;;;;;;4972952;28;20504;-75
2022/01/27 11:45:23;;;;;;;14.67;6.90;;;2.90;99.90;;;;;;4970366;28;20532;-72
2022/01/27 11:47:59;;;;;;;19.93;8.27;;;2.90;99.90;;;;;;4973602;28;20831;-73
2022/01/27 11:50:39;;;;;;;19.90;8.30;;;2.90;99.90;;;;;;4974755;28;20498;-70
2022/01/27 11:53:12;;;;;;;16.40;8.10;;;2.90;99.90;;;;;;4973018;28;20487;-70
2022/01/27 11:55:44;;;;;;;17.07;8.70;;;3.00;99.90;;;;;;4971665;28;20967;-74
2022/01/27 11:58:18;;;;;;;18.70;7.47;;;3.00;99.90;;;;;;4972643;28;20478;-74
2022/01/27 12:01:08;;;;;;;17.80;8.90;;;3.10;99.90;;;;;;4955482;28;20488;-73
2022/01/27 12:03:34;;;;;;;17.10;8.00;;;3.00;99.90;;;;;;4968546;28;20459;-73
2022/01/27 12:06:24;;;;;;;13.03;7.17;;;3.20;99.90;;;;;;4971030;28;20869;-73
2022/01/27 12:08:50;;;;;;;14.30;7.87;;;3.20;99.90;;;;;;4973161;28;20425;-73
2022/01/27 12:11:42;;;;;;;13.10;7.40;;;3.20;99.90;;;;;;4972500;28;20467;-73
2022/01/27 12:14:08;;;;;;;13.47;7.80;;;3.20;99.90;;;;;;4968792;28;20181;-73
2022/01/27 12:19:11;;;;;;;14.87;8.37;;;3.30;99.90;;;;;;4973926;28;20181;-70
2022/01/27 12:21:40;;;;;;;20.07;8.40;;;3.30;99.90;;;;;;4967645;28;20255;-73
2022/01/27 12:24:12;;;;;;;14.13;8.27;;;3.40;99.90;;;;;;4968828;28;20439;-73
2022/01/27 12:27:03;;;;;;;16.37;9.07;;;3.40;99.90;;;;;;4968665;28;20454;-74
2022/01/27 12:29:31;;;;;;;16.67;8.70;;;3.30;99.90;;;;;;4972394;28;20440;-73
2022/01/27 12:32:03;;;;;;;20.37;9.57;;;3.40;99.90;;;;;;4971233;28;20471;-74
2022/01/27 12:34:30;;;;;;;24.77;10.50;;;3.40;99.90;;;;;;4973185;28;20398;-73
2022/01/27 12:37:00;;;;;;;21.60;10.17;;;3.50;99.90;;;;;;4972929;28;20473;-73
2022/01/27 12:39:39;;;;;;;22.20;9.50;;;3.50;99.90;;;;;;4964110;28;20442;-73
2022/01/27 12:42:07;;;;;;;19.00;10.23;;;3.40;99.90;;;;;;4972065;28;20435;-73
2022/01/27 12:44:34;;;;;;;18.87;10.10;;;3.40;99.90;;;;;;4970719;28;20764;-73
2022/01/27 12:47:08;;;;;;;16.50;9.17;;;3.40;99.90;;;;;;4974044;28;20413;-74
2022/01/27 12:49:44;;;;;;;19.13;10.13;;;3.50;99.90;;;;;;4969610;28;20799;-73
2022/01/27 12:52:14;;;;;;;19.97;10.43;;;3.50;99.90;;;;;;4973276;28;20474;-74
2022/01/27 12:54:40;;;;;;;26.27;11.40;;;3.50;99.90;;;;;;4970960;28;20428;-74
2022/01/27 12:57:07;;;;;;;22.13;9.93;;;3.50;99.90;;;;;;4972160;28;20463;-74
2022/01/27 12:59:36;;;;;;;21.97;11.07;;;3.50;99.90;;;;;;4967895;28;20252;-72
2022/01/27 13:02:04;;;;;;;17.73;9.57;;;3.50;99.90;;;;;;4973475;28;20481;-74
2022/01/27 13:04:31;;;;;;;18.80;10.13;;;3.60;99.90;;;;;;4960024;28;21005;-74
2022/01/27 13:06:57;;;;;;;21.77;10.00;;;3.60;99.90;;;;;;4962624;28;20586;-74
2022/01/27 13:09:25;;;;;;;18.50;10.10;;;3.60;99.90;;;;;;4972144;28;20445;-74
2022/01/27 13:11:53;;;;;;;20.20;9.87;;;3.70;99.90;;;;;;4968459;28;20485;-73
2022/01/27 13:14:19;;;;;;;20.97;10.00;;;3.70;99.90;;;;;;4963271;28;20791;-74
2022/01/27 13:16:55;;;;;;;16.43;9.40;;;3.80;99.90;;;;;;4963982;28;20482;-73
2022/01/27 13:19:37;;;;;;;17.57;9.10;;;3.90;99.90;;;;;;4973096;28;20489;-73
2022/01/27 13:22:07;;;;;;;15.73;8.63;;;3.90;99.90;;;;;;4969330;28;20492;-73
2022/01/27 13:24:43;;;;;;;16.03;9.17;;;4.10;99.90;;;;;;4966148;28;20456;-73
2022/01/27 13:27:11;;;;;;;20.53;9.63;;;4.20;99.90;;;;;;4969618;28;20464;-73
2022/01/27 13:29:47;;;;;;;16.97;9.60;;;4.20;99.90;;;;;;4972780;28;20452;-73
2022/01/27 13:32:13;;;;;;;14.03;8.33;;;4.20;99.90;;;;;;4972943;28;20462;-74
2022/01/27 13:34:46;;;;;;;22.23;9.77;;;4.20;99.90;;;;;;4968033;28;20506;-74
2022/01/27 13:37:12;;;;;;;16.33;9.73;;;4.20;99.90;;;;;;4972566;28;20489;-74
2022/01/27 13:42:20;;;;;;;18.13;8.33;;;4.20;99.90;;;;;;4973350;28;20203;-74
2022/01/27 13:45:01;;;;;;;17.80;10.63;;;4.30;99.90;;;;;;4968144;28;20461;-74
2022/01/27 13:47:34;;;;;;;14.40;10.30;;;4.30;99.90;;;;;;4972890;28;20456;-74
2022/01/27 13:50:14;;;;;;;15.80;9.77;;;4.30;99.90;;;;;;4969368;28;20482;-75
2022/01/27 13:52:42;;;;;;;16.97;9.97;;;4.40;99.90;;;;;;4972858;28;20450;-75
2022/01/27 13:55:11;;;;;;;22.63;10.33;;;4.60;99.90;;;;;;4970921;28;20464;-74
2022/01/27 13:57:47;;;;;;;17.57;9.20;;;4.70;99.90;;;;;;4969734;28;20489;-74
2022/01/27 14:00:15;;;;;;;17.27;10.73;;;4.80;99.90;;;;;;4956636;28;20479;-74
2022/01/27 14:02:44;;;;;;;19.20;9.60;;;4.90;99.90;;;;;;4971720;28;20448;-72
2022/01/27 14:05:09;;;;;;;19.50;9.93;;;4.90;99.90;;;;;;4971999;28;20471;-73
2022/01/27 14:07:37;;;;;;;15.20;10.00;;;5.00;99.90;;;;;;4968294;28;20472;-74
2022/01/27 14:10:09;;;;;;;17.33;9.57;;;5.00;99.90;;;;;;4972334;28;20707;-74
2022/01/27 14:15:53;;;;;;;17.57;9.83;;;5.20;99.90;;;;;;4970027;28;20461;-74
2022/01/27 14:18:20;;;;;;;22.17;9.47;;;5.10;99.90;;;;;;4968013;28;20478;-73
2022/01/27 14:20:57;;;;;;;14.80;9.17;;;5.00;99.90;;;;;;4970823;28;20461;-74
2022/01/27 14:26:24;;;;;;;18.80;10.03;;;5.00;99.90;;;;;;4958634;28;20451;-73
2022/01/27 14:28:51;;;;;;;21.20;10.60;;;4.90;99.90;;;;;;4966152;28;20468;-73
2022/01/27 14:31:17;;;;;;;24.67;10.40;;;4.90;99.90;;;;;;4968455;28;20466;-73
2022/01/27 14:33:43;;;;;;;21.07;10.23;;;4.90;99.90;;;;;;4966162;28;20437;-74
2022/01/27 14:36:09;;;;;;;16.57;9.03;;;4.90;99.90;;;;;;4972029;28;20556;-73
2022/01/27 14:38:34;;;;;;;17.03;9.00;;;4.80;99.90;;;;;;4970813;28;20567;-73
2022/01/27 14:41:01;;;;;;;13.20;8.33;;;4.80;99.90;;;;;;4968092;28;20513;-74
2022/01/27 14:43:29;;;;;;;20.53;9.40;;;4.80;99.90;;;;;;4969933;28;20591;-73
2022/01/27 14:45:55;;;;;;;13.27;9.17;;;4.90;99.90;;;;;;4966015;28;20988;-74
2022/01/27 14:48:20;;;;;;;14.40;8.70;;;4.90;99.90;;;;;;4971680;28;20465;-74
2022/01/27 14:50:46;;;;;;;12.23;7.87;;;4.80;99.90;;;;;;4968537;28;20685;-73
2022/01/27 14:53:11;;;;;;;17.30;9.53;;;4.90;99.90;;;;;;4971053;28;20220;-74
2022/01/27 14:55:37;;;;;;;17.03;8.60;;;4.80;99.90;;;;;;4969841;28;20288;-74
2022/01/27 14:58:03;;;;;;;15.90;8.03;;;4.90;99.90;;;;;;4973841;28;20312;-74
2022/01/27 15:00:29;;;;;;;18.87;7.90;;;5.00;99.90;;;;;;4970622;28;20217;-75
2022/01/27 15:02:55;;;;;;;15.87;8.43;;;4.90;99.90;;;;;;4972142;28;20477;-75
2022/01/27 15:05:21;;;;;;;13.83;7.30;;;4.90;99.90;;;;;;4975794;28;20950;-73
2022/01/27 15:07:47;;;;;;;14.30;7.97;;;4.90;99.90;;;;;;4971598;28;20239;-72
2022/01/27 15:10:16;;;;;;;15.73;8.20;;;4.90;99.90;;;;;;4975301;28;21049;-73
2022/01/27 15:12:41;;;;;;;14.27;7.70;;;4.90;99.90;;;;;;4970101;28;20474;-73
2022/01/27 15:20:36;;;;;;;14.60;7.97;;;4.90;99.90;;;;;;4956107;28;20557;-74
2022/01/27 15:23:02;;;;;;;15.53;8.40;;;4.90;99.90;;;;;;4962224;28;20495;-74
2022/01/27 15:25:28;;;;;;;12.60;7.83;;;4.90;99.90;;;;;;4972254;28;20202;-74
2022/01/27 15:27:54;;;;;;;10.47;7.03;;;4.90;99.90;;;;;;4970061;28;20545;-74
2022/01/27 15:30:20;;;;;;;14.53;8.40;;;4.90;99.90;;;;;;4975168;28;20576;-74
2022/01/27 15:32:46;;;;;;;12.53;6.90;;;5.00;99.90;;;;;;4973447;28;20973;-73
2022/01/27 15:35:12;;;;;;;23.00;8.67;;;5.00;99.90;;;;;;4971804;28;20496;-73
2022/01/27 15:37:43;;;;;;;13.70;8.50;;;5.00;99.90;;;;;;4971971;28;20237;-73
2022/01/27 15:40:15;;;;;;;13.27;7.30;;;5.00;99.90;;;;;;4955314;28;20898;-74
2022/01/27 15:42:42;;;;;;;16.27;9.73;;;4.90;99.90;;;;;;4955478;28;20485;-72
2022/01/27 15:45:09;;;;;;;20.53;11.50;;;4.90;99.90;;;;;;4969021;28;20552;-73
2022/01/27 15:47:38;;;;;;;18.67;9.97;;;4.90;99.90;;;;;;4974872;28;20497;-74
2022/01/27 15:50:09;;;;;;;13.37;7.00;;;4.80;99.90;;;;;;4970014;28;21016;-74
2022/01/27 15:52:35;;;;;;;15.33;8.30;;;4.80;99.90;;;;;;4974075;28;20414;-73
2022/01/27 15:55:03;;;;;;;12.80;8.00;;;4.70;99.90;;;;;;4969368;28;20442;-73
2022/01/27 15:57:29;;;;;;;20.13;8.70;;;4.70;99.90;;;;;;4954592;28;20472;-74
2022/01/27 15:59:54;;;;;;;11.30;6.40;;;4.60;99.90;;;;;;4962354;28;20543;-72
2022/01/27 16:02:20;;;;;;;12.57;6.40;;;4.70;99.90;;;;;;4974468;28;20195;-74
2022/01/27 16:04:46;;;;;;;12.37;7.43;;;4.70;99.90;;;;;;4972182;28;20214;-74
2022/01/27 16:07:11;;;;;;;15.70;8.00;;;4.60;99.90;;;;;;4970519;28;20220;-75
2022/01/27 16:09:37;;;;;;;12.57;8.70;;;4.60;99.90;;;;;;4973630;28;20225;-75
2022/01/27 16:12:03;;;;;;;20.23;8.07;;;4.50;99.90;;;;;;4971292;28;20578;-75
2022/01/27 16:14:28;;;;;;;13.03;7.53;;;4.50;99.90;;;;;;4971817;28;20221;-75
2022/01/27 16:16:54;;;;;;;17.53;9.03;;;4.50;99.90;;;;;;4969781;28;20846;-74
2022/01/27 16:19:20;;;;;;;11.13;6.93;;;4.60;99.90;;;;;;4973807;28;20228;-75
2022/01/27 16:21:46;;;;;;;10.03;5.50;;;4.60;99.90;;;;;;4967744;28;20250;-74
2022/01/27 16:24:12;;;;;;;10.17;6.13;;;4.60;99.90;;;;;;4972748;28;20222;-73
2022/01/27 16:26:38;;;;;;;12.50;6.97;;;4.60;99.90;;;;;;4970806;28;20465;-70
2022/01/27 16:29:04;;;;;;;11.30;6.90;;;4.60;99.90;;;;;;4971133;28;20479;-74
2022/01/27 16:31:30;;;;;;;9.97;6.90;;;4.60;99.90;;;;;;4973527;28;20926;-75
2022/01/27 16:33:55;;;;;;;11.33;6.80;;;4.60;99.90;;;;;;4971196;28;20233;-75
2022/01/27 16:36:21;;;;;;;12.10;7.27;;;4.50;99.90;;;;;;4974031;28;20959;-76
2022/01/27 16:38:46;;;;;;;11.37;6.63;;;4.60;99.90;;;;;;4971254;28;20230;-75
2022/01/27 16:41:12;;;;;;;10.37;6.53;;;4.50;99.90;;;;;;4974086;28;20210;-75
2022/01/27 16:43:37;;;;;;;12.57;8.20;;;4.50;99.90;;;;;;4970333;28;20230;-75
2022/01/27 16:46:04;;;;;;;10.87;6.60;;;4.50;99.90;;;;;;4973178;28;20305;-76
2022/01/27 16:48:29;;;;;;;10.97;7.43;;;4.50;99.90;;;;;;4972377;28;20700;-76
2022/01/27 16:50:55;;;;;;;18.53;9.37;;;4.40;99.90;;;;;;4970305;28;20437;-76
2022/01/27 16:53:22;;;;;;;17.47;12.90;;;4.40;99.90;;;;;;4973439;28;20773;-77
2022/01/27 16:55:48;;;;;;;18.23;8.17;;;4.40;99.90;;;;;;4972756;28;20227;-76
2022/01/27 16:58:14;;;;;;;16.93;9.30;;;4.40;99.90;;;;;;4973287;28;20969;-77
2022/01/27 17:00:40;;;;;;;17.53;8.97;;;4.30;99.90;;;;;;4968224;28;20287;-77
2022/01/27 17:03:05;;;;;;;15.93;9.47;;;4.30;99.90;;;;;;4973390;28;20232;-76
2022/01/27 17:05:32;;;;;;;15.87;9.03;;;4.30;99.90;;;;;;4971648;28;20864;-76
2022/01/27 17:07:57;;;;;;;16.40;9.53;;;4.30;99.90;;;;;;4973216;28;20816;-76
2022/01/27 17:10:23;;;;;;;26.03;13.47;;;4.30;99.90;;;;;;4972079;28;20465;-77
2022/01/27 17:12:49;;;;;;;20.63;12.07;;;4.30;99.90;;;;;;4970353;28;20702;-75
2022/01/27 17:15:15;;;;;;;16.40;9.87;;;4.20;99.90;;;;;;4971145;28;20474;-77
2022/01/27 17:17:45;;;;;;;23.30;14.27;;;4.20;99.90;;;;;;4971668;28;20594;-76
2022/01/27 17:20:11;;;;;;;18.10;10.90;;;4.20;99.90;;;;;;4972615;28;21005;-77
2022/01/27 17:22:37;;;;;;;17.70;10.50;;;4.20;99.90;;;;;;4969315;28;20468;-76
2022/01/27 17:25:06;;;;;;;16.50;11.00;;;4.20;99.90;;;;;;4964035;28;20944;-76
2022/01/27 17:27:33;;;;;;;19.60;10.83;;;4.20;99.90;;;;;;4970576;28;20545;-77
2022/01/27 17:29:58;;;;;;;20.63;12.60;;;4.30;99.90;;;;;;4973506;28;20472;-77
2022/01/27 17:32:24;;;;;;;18.20;11.27;;;4.20;99.90;;;;;;4973534;28;20445;-76
2022/01/27 17:34:49;;;;;;;17.17;9.67;;;4.30;99.90;;;;;;4967100;28;20230;-76
2022/01/27 17:37:15;;;;;;;12.13;8.50;;;4.30;99.90;;;;;;4973607;28;20225;-76
2022/01/27 17:39:41;;;;;;;20.53;10.77;;;4.30;99.90;;;;;;4971110;28;20217;-76
2022/01/27 17:42:07;;;;;;;22.70;9.50;;;4.30;99.90;;;;;;4973049;28;20445;-76
2022/01/27 17:44:44;;;;;;;23.33;11.80;;;4.30;99.90;;;;;;4968862;28;20229;-76